Time;durP1;ratioP1;P1;durP2;ratioP2;P2;SDS_P1;SDS_P2;PMS_P1;PMS_P2;Temp;Humidity;BMP_temperature;BMP_pressure;BME280_temperature;BME280_humidity;BME280_pressure;Samples;Min_cycle;Max_cycle;Signal;HPM_P1;HPM_P2
2022/05/01 00:01:46;;;;;;;10.32;5.25;;;11.40;62.80;;;;;;9185902;19;20498;-75
2022/05/01 00:04:52;;;;;;;10.88;5.45;;;11.40;62.10;;;;;;9182609;19;20014;-74
2022/05/01 00:07:58;;;;;;;13.20;5.22;;;11.40;62.20;;;;;;9183207;19;20022;-74
2022/05/01 00:11:18;;;;;;;7.43;5.28;;;11.40;62.20;;;;;;9181982;19;20044;-75
2022/05/01 00:14:36;;;;;;;8.23;5.35;;;11.40;62.30;;;;;;9182329;19;20015;-74
2022/05/01 00:17:41;;;;;;;8.23;5.47;;;11.30;62.40;;;;;;9176228;19;20037;-75
2022/05/01 00:20:46;;;;;;;7.55;5.20;;;11.30;62.30;;;;;;9181985;19;20027;-75
2022/05/01 00:23:51;;;;;;;10.15;5.57;;;11.30;62.40;;;;;;9184794;19;20041;-74
2022/05/01 00:27:05;;;;;;;11.07;6.05;;;11.30;62.50;;;;;;9180797;19;20078;-73
2022/05/01 00:30:15;;;;;;;8.70;5.55;;;11.20;62.50;;;;;;9182551;19;20014;-74
2022/05/01 00:36:42;;;;;;;9.48;5.85;;;11.30;62.60;;;;;;9182333;19;20020;-76
2022/05/01 00:39:55;;;;;;;9.85;5.43;;;11.20;62.60;;;;;;9180472;19;20021;-76
2022/05/01 00:43:07;;;;;;;12.32;6.05;;;11.20;62.60;;;;;;9177502;19;20381;-76
2022/05/01 00:46:23;;;;;;;10.15;5.75;;;11.20;62.70;;;;;;9177974;19;20019;-75
2022/05/01 00:49:30;;;;;;;9.43;5.72;;;11.20;62.70;;;;;;9180603;19;20090;-75
2022/05/01 00:52:35;;;;;;;12.50;6.35;;;11.20;62.80;;;;;;9180055;19;20010;-74
2022/05/01 00:55:48;;;;;;;10.10;6.40;;;11.20;62.80;;;;;;9177626;19;20094;-74
2022/05/01 00:59:01;;;;;;;11.13;6.30;;;11.20;62.80;;;;;;9178621;19;20032;-75
2022/05/01 01:02:09;;;;;;;11.93;6.20;;;11.20;62.90;;;;;;9177422;19;20025;-75
2022/05/01 01:05:17;;;;;;;10.45;6.13;;;11.10;63.00;;;;;;9178844;19;20014;-75
2022/05/01 01:08:23;;;;;;;11.02;6.07;;;11.10;63.00;;;;;;9178183;19;20018;-74
2022/05/01 01:11:28;;;;;;;14.35;6.18;;;11.10;63.00;;;;;;9180577;19;20015;-74
2022/05/01 01:14:33;;;;;;;9.60;6.20;;;11.10;63.10;;;;;;9179272;19;20777;-76
2022/05/01 01:17:46;;;;;;;10.98;6.03;;;11.00;63.10;;;;;;9178261;19;20022;-74
2022/05/01 01:20:54;;;;;;;10.37;6.37;;;11.00;63.30;;;;;;9181104;19;20018;-75
2022/05/01 01:24:00;;;;;;;18.77;6.47;;;11.00;63.10;;;;;;9178425;19;20471;-74
2022/05/01 01:27:19;;;;;;;11.98;6.93;;;11.00;63.20;;;;;;9179530;19;20011;-75
2022/05/01 01:33:51;;;;;;;10.82;6.65;;;11.00;63.30;;;;;;9177971;19;20436;-75
2022/05/01 01:37:08;;;;;;;12.40;6.72;;;11.00;63.30;;;;;;9177484;19;20082;-76
2022/05/01 01:40:16;;;;;;;9.95;6.50;;;11.00;63.40;;;;;;9178559;19;20056;-75
2022/05/01 01:43:27;;;;;;;9.18;6.35;;;10.90;63.40;;;;;;9177580;19;20027;-74
2022/05/01 01:46:34;;;;;;;10.68;6.90;;;10.90;63.50;;;;;;9179210;19;20025;-74
2022/05/01 01:49:45;;;;;;;15.18;7.18;;;10.90;63.50;;;;;;9180598;19;20010;-77
2022/05/01 01:52:54;;;;;;;14.68;6.70;;;10.90;63.50;;;;;;9178673;19;20014;-75
2022/05/01 01:56:02;;;;;;;12.73;7.07;;;10.90;63.60;;;;;;9184157;19;20403;-71
2022/05/01 01:59:11;;;;;;;13.98;7.07;;;10.80;63.50;;;;;;9188484;19;20022;-72
2022/05/01 02:02:16;;;;;;;11.18;7.32;;;10.80;63.60;;;;;;9186084;19;20479;-73
2022/05/01 02:05:22;;;;;;;12.52;6.78;;;10.90;63.70;;;;;;9186844;19;20082;-74
2022/05/01 02:08:31;;;;;;;11.90;6.88;;;10.80;63.70;;;;;;9183580;19;20565;-72
2022/05/01 02:11:40;;;;;;;21.23;7.72;;;10.80;63.80;;;;;;9188195;19;20344;-75
2022/05/01 02:14:48;;;;;;;14.07;7.70;;;10.80;63.80;;;;;;9187232;19;20022;-74
2022/05/01 02:17:56;;;;;;;14.52;8.32;;;10.80;63.80;;;;;;9187867;19;20476;-73
2022/05/01 02:24:23;;;;;;;13.55;7.60;;;10.70;63.90;;;;;;9185862;19;20511;-75
2022/05/01 02:27:31;;;;;;;18.48;7.25;;;10.80;64.00;;;;;;9185140;19;20014;-74
2022/05/01 02:30:39;;;;;;;12.90;6.95;;;10.70;63.90;;;;;;9187001;19;20349;-75
2022/05/01 02:33:44;;;;;;;13.02;8.27;;;10.70;64.00;;;;;;9186270;19;20023;-75
2022/05/01 02:36:51;;;;;;;14.30;7.93;;;10.70;64.00;;;;;;9185393;19;20513;-76
2022/05/01 02:40:14;;;;;;;12.90;7.20;;;10.70;64.10;;;;;;9189016;19;20360;-75
2022/05/01 02:43:22;;;;;;;14.32;7.75;;;10.70;64.40;;;;;;9185918;19;20872;-74
2022/05/01 02:46:28;;;;;;;14.05;7.95;;;10.70;64.10;;;;;;9185798;19;20022;-75
2022/05/01 02:49:35;;;;;;;16.92;7.03;;;10.70;64.20;;;;;;9182543;19;20007;-74
2022/05/01 02:52:51;;;;;;;13.57;7.78;;;10.60;64.20;;;;;;9185719;19;20018;-75
2022/05/01 02:56:05;;;;;;;13.25;7.93;;;10.60;64.30;;;;;;9182828;19;20038;-75
2022/05/01 02:59:10;;;;;;;15.07;8.10;;;10.60;64.40;;;;;;9185852;19;20014;-74
2022/05/01 03:02:18;;;;;;;12.32;7.88;;;10.60;64.30;;;;;;9186960;19;20034;-76
2022/05/01 03:05:26;;;;;;;14.13;8.02;;;10.60;64.30;;;;;;9184229;19;20484;-75
2022/05/01 03:08:31;;;;;;;15.40;8.57;;;10.60;64.40;;;;;;9182474;19;20653;-75
2022/05/01 03:11:43;;;;;;;14.32;8.27;;;10.50;64.40;;;;;;9183710;19;20052;-75
2022/05/01 03:14:49;;;;;;;11.77;8.02;;;10.50;64.50;;;;;;9184826;19;20026;-74
2022/05/01 03:24:31;;;;;;;12.40;8.00;;;10.50;64.60;;;;;;9182851;19;20439;-73
2022/05/01 03:27:39;;;;;;;16.17;8.82;;;10.50;64.60;;;;;;9182786;19;20021;-74
2022/05/01 03:30:44;;;;;;;13.80;8.15;;;10.50;64.70;;;;;;9183846;19;20377;-73
2022/05/01 03:33:50;;;;;;;18.02;8.52;;;10.50;64.70;;;;;;9182663;19;20006;-75
2022/05/01 03:36:56;;;;;;;22.27;8.63;;;10.50;64.70;;;;;;9185517;19;20074;-75
2022/05/01 03:40:03;;;;;;;15.27;8.45;;;10.50;64.70;;;;;;9184187;19;20363;-75
2022/05/01 03:43:13;;;;;;;17.17;9.32;;;10.50;64.80;;;;;;9183043;19;20034;-73
2022/05/01 03:46:20;;;;;;;21.60;10.18;;;10.50;65.50;;;;;;9183583;19;20424;-76
2022/05/01 03:49:25;;;;;;;17.75;8.73;;;10.50;64.90;;;;;;9181340;19;20042;-75
2022/05/01 03:52:30;;;;;;;20.75;8.85;;;10.50;64.90;;;;;;9183289;19;20022;-74
2022/05/01 03:55:36;;;;;;;15.05;9.27;;;10.40;64.90;;;;;;9180612;19;20055;-75
2022/05/01 03:58:44;;;;;;;17.17;9.00;;;10.40;64.90;;;;;;9185093;19;20048;-74
2022/05/01 04:01:51;;;;;;;16.13;8.85;;;10.40;65.00;;;;;;9184272;19;20448;-74
2022/05/01 04:04:59;;;;;;;16.92;9.48;;;10.40;65.00;;;;;;9185181;19;20494;-74
2022/05/01 04:08:09;;;;;;;25.65;9.30;;;10.30;65.10;;;;;;9182990;19;20015;-73
2022/05/01 04:11:19;;;;;;;14.73;8.38;;;10.30;65.10;;;;;;9182383;19;20018;-74
2022/05/01 04:14:29;;;;;;;23.90;9.48;;;10.30;65.10;;;;;;9181903;19;20456;-75
2022/05/01 04:17:39;;;;;;;21.23;9.65;;;10.30;65.30;;;;;;9185067;19;20014;-74
2022/05/01 04:20:50;;;;;;;15.18;8.88;;;10.30;65.20;;;;;;9182333;19;20026;-74
2022/05/01 04:23:58;;;;;;;14.77;9.13;;;10.30;65.30;;;;;;9184881;19;20015;-74
2022/05/01 04:27:06;;;;;;;13.75;9.18;;;10.30;65.30;;;;;;9183941;19;20042;-75
2022/05/01 04:30:16;;;;;;;16.90;9.70;;;10.30;65.30;;;;;;9179024;19;20011;-74
2022/05/01 04:33:23;;;;;;;15.73;9.93;;;10.30;65.50;;;;;;9180979;19;20022;-76
2022/05/01 04:36:28;;;;;;;17.13;10.43;;;10.30;65.50;;;;;;9182403;19;20506;-75
2022/05/01 04:39:36;;;;;;;17.38;10.35;;;10.20;65.40;;;;;;9182320;19;20020;-73
2022/05/01 04:42:41;;;;;;;15.57;9.60;;;10.20;65.40;;;;;;9182546;19;20022;-74
2022/05/01 04:45:51;;;;;;;17.88;9.35;;;10.20;65.50;;;;;;9181751;19;20102;-72
2022/05/01 04:48:56;;;;;;;15.85;9.57;;;10.20;66.30;;;;;;9180964;19;20822;-74
2022/05/01 04:52:01;;;;;;;15.25;9.40;;;10.20;65.60;;;;;;9181236;19;20018;-76
2022/05/01 04:55:08;;;;;;;15.60;9.50;;;10.20;65.60;;;;;;9175633;19;21495;-72
2022/05/01 04:58:17;;;;;;;14.30;9.93;;;10.20;65.80;;;;;;9181642;19;20562;-75
2022/05/01 05:01:26;;;;;;;16.70;10.65;;;10.20;65.70;;;;;;9179345;19;20364;-75
2022/05/01 05:04:32;;;;;;;16.05;9.38;;;10.20;65.70;;;;;;9179804;19;20082;-74
2022/05/01 05:07:40;;;;;;;19.55;11.20;;;10.20;65.80;;;;;;9180414;19;20514;-72
2022/05/01 05:10:45;;;;;;;21.23;10.43;;;10.20;65.90;;;;;;9179755;19;20015;-75
2022/05/01 05:13:52;;;;;;;16.52;9.45;;;10.20;65.90;;;;;;9178722;19;20093;-75
2022/05/01 05:17:06;;;;;;;15.00;8.98;;;10.20;65.90;;;;;;9180918;19;20348;-75
2022/05/01 05:20:13;;;;;;;15.52;9.77;;;10.20;66.10;;;;;;9179313;19;20022;-75
2022/05/01 05:23:18;;;;;;;14.45;9.35;;;10.10;66.00;;;;;;9179489;19;20014;-74
2022/05/01 05:26:25;;;;;;;18.73;10.55;;;10.20;66.00;;;;;;9176271;19;20534;-75
2022/05/01 05:29:30;;;;;;;19.98;11.07;;;10.20;66.10;;;;;;9176093;19;20666;-75
2022/05/01 05:32:38;;;;;;;17.80;9.93;;;10.20;66.10;;;;;;9177224;19;20010;-74
2022/05/01 05:35:48;;;;;;;18.05;10.38;;;10.20;66.20;;;;;;9178995;19;20048;-75
2022/05/01 05:38:53;;;;;;;19.90;10.80;;;10.20;66.10;;;;;;9179600;19;20029;-74
2022/05/01 05:41:58;;;;;;;17.27;10.45;;;10.20;66.20;;;;;;9177398;19;20384;-75
2022/05/01 05:45:03;;;;;;;17.85;10.43;;;10.20;66.20;;;;;;9179031;19;20018;-76
2022/05/01 05:48:12;;;;;;;18.27;10.05;;;10.20;66.30;;;;;;9177175;19;20014;-72
2022/05/01 05:51:26;;;;;;;16.20;10.23;;;10.20;66.30;;;;;;9174330;19;20022;-74
2022/05/01 05:54:32;;;;;;;16.48;10.60;;;10.20;66.30;;;;;;9178263;19;20029;-76
2022/05/01 05:57:38;;;;;;;20.77;11.18;;;10.20;66.30;;;;;;9172388;19;20108;-76
2022/05/01 06:00:43;;;;;;;20.08;10.48;;;10.20;66.40;;;;;;9175534;19;20010;-76
2022/05/01 06:03:54;;;;;;;18.40;11.05;;;10.30;66.50;;;;;;9178571;19;20010;-72
2022/05/01 06:07:08;;;;;;;17.65;9.95;;;10.20;66.50;;;;;;9174904;19;20023;-77
2022/05/01 06:10:13;;;;;;;16.10;10.18;;;10.30;66.50;;;;;;9175575;19;20468;-74
2022/05/01 06:13:18;;;;;;;16.88;10.32;;;10.30;66.50;;;;;;9177690;19;20329;-75
2022/05/01 06:16:23;;;;;;;20.95;10.10;;;10.30;66.50;;;;;;9176786;19;20015;-75
2022/05/01 06:19:31;;;;;;;19.67;9.98;;;10.30;66.60;;;;;;9175412;19;20025;-75
2022/05/01 06:22:36;;;;;;;17.77;10.88;;;10.30;66.60;;;;;;9170220;19;20015;-75
2022/05/01 06:25:43;;;;;;;20.67;10.98;;;10.40;66.60;;;;;;9175420;19;20022;-75
2022/05/01 06:28:48;;;;;;;18.67;10.13;;;10.40;66.60;;;;;;9174983;19;20037;-76
2022/05/01 06:31:56;;;;;;;20.38;10.77;;;10.40;66.70;;;;;;9174137;19;20519;-76
2022/05/01 06:35:10;;;;;;;18.73;10.13;;;10.40;66.80;;;;;;9171819;19;20112;-75
2022/05/01 06:38:19;;;;;;;18.77;9.95;;;10.40;66.90;;;;;;9170055;19;20097;-74
2022/05/01 06:41:30;;;;;;;17.52;10.52;;;10.50;66.80;;;;;;9177052;19;20527;-71
2022/05/01 06:44:35;;;;;;;17.80;10.45;;;10.50;66.90;;;;;;9179334;19;20026;-74
2022/05/01 06:47:40;;;;;;;20.63;11.02;;;10.50;66.80;;;;;;9172904;19;20029;-74
2022/05/01 06:50:50;;;;;;;24.42;10.98;;;10.50;66.70;;;;;;9170580;19;20011;-71
2022/05/01 06:53:55;;;;;;;21.33;11.00;;;10.50;66.90;;;;;;9174927;19;20048;-75
2022/05/01 06:57:03;;;;;;;20.60;10.68;;;10.60;66.90;;;;;;9170830;19;20014;-75
2022/05/01 07:00:12;;;;;;;19.67;10.73;;;10.60;66.80;;;;;;9172352;19;20029;-74
2022/05/01 07:03:17;;;;;;;19.85;10.40;;;10.60;66.90;;;;;;9172364;19;20011;-72
2022/05/01 07:06:27;;;;;;;20.05;11.05;;;10.70;66.90;;;;;;9177131;19;20771;-76
2022/05/01 07:09:34;;;;;;;20.88;11.48;;;10.70;67.00;;;;;;9182748;19;20038;-74
2022/05/01 07:12:39;;;;;;;20.00;11.15;;;10.70;66.90;;;;;;9182700;19;20038;-75
2022/05/01 07:15:46;;;;;;;18.45;11.10;;;10.70;66.90;;;;;;9182618;19;20018;-75
2022/05/01 07:18:52;;;;;;;15.10;10.18;;;10.70;66.90;;;;;;9182349;19;20034;-75
2022/05/01 07:21:59;;;;;;;17.65;10.10;;;10.80;67.00;;;;;;9183985;19;20456;-75
2022/05/01 07:25:06;;;;;;;22.58;11.38;;;10.80;67.00;;;;;;9183401;19;20023;-75
2022/05/01 07:28:11;;;;;;;17.88;11.07;;;10.80;67.00;;;;;;9184508;19;20013;-76
2022/05/01 07:31:17;;;;;;;18.65;10.98;;;10.90;67.00;;;;;;9182545;19;20038;-77
2022/05/01 07:34:28;;;;;;;18.73;10.45;;;10.90;67.00;;;;;;9184142;19;20010;-74
2022/05/01 07:37:38;;;;;;;18.90;11.45;;;10.90;67.00;;;;;;9181087;19;20048;-75
2022/05/01 07:40:46;;;;;;;19.90;10.43;;;11.00;67.00;;;;;;9184588;19;20010;-73
2022/05/01 07:43:51;;;;;;;20.55;11.30;;;11.10;67.10;;;;;;9184338;19;20380;-75
2022/05/01 07:46:59;;;;;;;18.73;11.32;;;11.10;67.00;;;;;;9181960;19;20023;-74
2022/05/01 07:50:06;;;;;;;23.85;12.00;;;11.20;67.00;;;;;;9181368;19;20018;-72
2022/05/01 07:53:16;;;;;;;20.70;11.82;;;11.20;67.00;;;;;;9181458;19;20385;-75
2022/05/01 07:56:27;;;;;;;20.75;11.70;;;11.20;67.00;;;;;;9176853;19;20475;-75
2022/05/01 07:59:32;;;;;;;21.20;11.32;;;11.20;66.90;;;;;;9182870;19;20011;-74
2022/05/01 08:04:27;;;;;;;19.27;10.80;;;11.30;66.90;;;;;;9182815;19;20018;-74
2022/05/01 08:06:05;;;;;;;21.58;10.60;;;11.40;67.10;;;;;;9181311;19;20038;-75
2022/05/01 08:09:13;;;;;;;18.15;10.60;;;11.40;66.90;;;;;;9179396;19;20014;-74
2022/05/01 08:12:21;;;;;;;17.05;10.73;;;11.50;66.90;;;;;;9178993;19;20015;-75
2022/05/01 08:15:30;;;;;;;18.48;11.52;;;11.50;66.80;;;;;;9180414;19;20014;-75
2022/05/01 08:21:56;;;;;;;18.65;9.85;;;11.70;66.80;;;;;;9180121;19;20014;-75
2022/05/01 08:25:06;;;;;;;18.33;9.60;;;11.70;66.80;;;;;;9180675;19;20015;-76
2022/05/01 08:28:14;;;;;;;16.38;9.40;;;11.70;66.70;;;;;;9181966;19;20472;-73
2022/05/01 08:31:23;;;;;;;15.65;8.55;;;11.80;66.70;;;;;;9173537;19;20111;-73
2022/05/01 08:34:28;;;;;;;12.32;7.78;;;11.80;66.60;;;;;;9177109;19;20014;-72
2022/05/01 08:37:33;;;;;;;11.27;7.00;;;11.90;66.60;;;;;;9175401;19;20055;-75
2022/05/01 08:40:42;;;;;;;16.13;8.45;;;11.90;66.30;;;;;;9178020;19;20015;-74
2022/05/01 08:43:47;;;;;;;10.38;7.45;;;11.90;66.20;;;;;;9175462;19;20112;-74
2022/05/01 08:47:02;;;;;;;14.18;7.68;;;12.00;66.20;;;;;;9175394;19;20014;-75
2022/05/01 08:50:11;;;;;;;14.43;8.00;;;12.00;66.20;;;;;;9176809;19;20266;-76
2022/05/01 08:53:20;;;;;;;12.85;7.00;;;12.10;66.10;;;;;;9174710;19;20113;-74
2022/05/01 08:56:28;;;;;;;14.98;6.97;;;12.10;65.90;;;;;;9169589;19;20029;-74
2022/05/01 08:59:35;;;;;;;11.57;6.05;;;12.20;65.90;;;;;;9173654;19;20021;-74
2022/05/01 09:02:41;;;;;;;10.93;7.10;;;12.30;65.80;;;;;;9171783;19;20046;-75
2022/05/01 09:05:48;;;;;;;11.50;7.10;;;12.30;65.80;;;;;;9176690;19;20026;-79
2022/05/01 09:08:56;;;;;;;12.93;7.25;;;12.40;65.60;;;;;;9168622;19;20018;-77
2022/05/01 09:15:34;;;;;;;18.25;6.78;;;12.60;65.50;;;;;;9174187;19;20025;-77
2022/05/01 09:18:48;;;;;;;13.10;6.72;;;12.70;65.50;;;;;;9173082;19;20048;-76
2022/05/01 09:22:00;;;;;;;10.23;5.60;;;12.80;65.40;;;;;;9175930;19;20014;-80
2022/05/01 09:25:17;;;;;;;9.02;5.93;;;12.80;65.30;;;;;;9176172;19;20365;-77
2022/05/01 09:28:29;;;;;;;10.30;5.50;;;12.90;65.10;;;;;;9173701;19;20025;-77
2022/05/01 09:31:50;;;;;;;10.52;6.15;;;13.10;65.10;;;;;;9172830;19;20094;-77
2022/05/01 09:34:57;;;;;;;12.98;5.70;;;13.10;65.00;;;;;;9175863;19;20022;-79
2022/05/01 09:38:21;;;;;;;9.98;5.60;;;13.30;64.90;;;;;;9175946;19;20018;-77
2022/05/01 09:41:30;;;;;;;8.98;5.25;;;13.40;64.60;;;;;;9173289;19;20034;-75
2022/05/01 09:44:41;;;;;;;10.43;5.28;;;13.50;64.50;;;;;;9172699;19;20052;-77
2022/05/01 09:47:47;;;;;;;9.10;4.90;;;13.60;64.30;;;;;;9173857;19;20015;-76
2022/05/01 09:50:53;;;;;;;11.77;5.28;;;13.80;64.30;;;;;;9171404;19;20028;-77
2022/05/01 09:53:59;;;;;;;14.45;5.18;;;13.90;64.00;;;;;;9174296;19;20094;-76
2022/05/01 09:57:05;;;;;;;8.63;4.93;;;14.10;63.90;;;;;;9169975;19;20064;-75
2022/05/01 10:00:14;;;;;;;10.13;5.68;;;14.20;63.70;;;;;;9172846;19;20070;-78
2022/05/01 10:03:28;;;;;;;7.20;5.20;;;14.30;63.40;;;;;;9174959;19;20015;-77
2022/05/01 10:06:35;;;;;;;9.68;4.97;;;14.50;63.20;;;;;;9172459;19;20014;-76
2022/05/01 10:09:43;;;;;;;12.15;5.25;;;14.60;63.20;;;;;;9167977;19;20065;-78
2022/05/01 10:12:53;;;;;;;11.68;5.10;;;14.80;63.00;;;;;;9169719;19;20816;-78
2022/05/01 10:16:03;;;;;;;7.28;5.20;;;15.00;62.90;;;;;;9179185;19;20018;-77
2022/05/01 10:19:15;;;;;;;11.07;5.30;;;15.10;62.60;;;;;;9180899;19;20050;-76
2022/05/01 10:22:29;;;;;;;12.93;5.80;;;15.30;62.50;;;;;;9181509;19;20025;-77
2022/05/01 10:25:38;;;;;;;8.80;5.80;;;15.50;62.30;;;;;;9182186;19;20384;-77
2022/05/01 10:29:37;;;;;;;7.60;5.60;;;15.70;62.10;;;;;;9181069;19;20022;-77
2022/05/01 10:33:07;;;;;;;12.55;6.53;;;16.00;61.80;;;;;;9177245;19;20521;-74
2022/05/01 10:36:45;;;;;;;8.98;5.50;;;16.20;61.50;;;;;;9179775;19;20018;-73
2022/05/01 10:39:53;;;;;;;10.10;5.22;;;16.40;61.10;;;;;;9181697;19;20015;-73
2022/05/01 10:43:02;;;;;;;8.15;5.20;;;16.70;61.20;;;;;;9179647;19;20021;-73
2022/05/01 10:46:31;;;;;;;7.00;4.80;;;16.80;60.70;;;;;;9181462;19;20018;-75
2022/05/01 10:49:44;;;;;;;9.25;4.53;;;17.00;60.00;;;;;;9178832;19;20017;-75
2022/05/01 10:53:08;;;;;;;5.05;3.70;;;17.10;59.90;;;;;;9176517;19;20014;-75
2022/05/01 10:56:22;;;;;;;8.68;4.75;;;17.20;59.30;;;;;;9174879;19;20022;-73
2022/05/01 10:59:43;;;;;;;7.65;4.07;;;17.30;59.30;;;;;;9175987;19;20022;-73
2022/05/01 11:02:49;;;;;;;8.05;4.90;;;17.40;59.00;;;;;;9179801;19;20019;-73
2022/05/01 11:06:10;;;;;;;7.03;5.03;;;17.40;59.10;;;;;;9186172;19;20014;-74
2022/05/01 11:09:28;;;;;;;8.65;4.40;;;17.50;58.60;;;;;;9182610;19;20122;-76
2022/05/01 11:12:35;;;;;;;10.60;5.85;;;17.50;58.70;;;;;;9184160;19;20015;-76
2022/05/01 11:15:47;;;;;;;9.20;4.72;;;17.60;58.60;;;;;;9184905;19;20029;-74
2022/05/01 11:18:57;;;;;;;8.32;5.22;;;17.60;58.20;;;;;;9185311;19;20056;-75
2022/05/01 11:22:10;;;;;;;7.18;4.40;;;17.60;58.20;;;;;;9182867;19;20018;-75
2022/05/01 11:25:19;;;;;;;9.95;5.38;;;17.70;58.00;;;;;;9184781;19;20015;-75
2022/05/01 11:28:48;;;;;;;8.43;4.65;;;17.80;58.10;;;;;;9183707;19;20341;-76
2022/05/01 11:31:54;;;;;;;8.38;4.30;;;17.90;57.60;;;;;;9184828;19;20003;-77
2022/05/01 11:34:59;;;;;;;8.80;4.00;;;18.00;57.80;;;;;;9183029;19;20014;-73
2022/05/01 11:38:13;;;;;;;5.57;3.90;;;18.10;57.60;;;;;;9185445;19;20014;-76
2022/05/01 11:41:38;;;;;;;6.90;4.55;;;18.20;57.10;;;;;;9185277;19;20014;-77
2022/05/01 11:44:44;;;;;;;10.40;4.15;;;18.30;57.30;;;;;;9184521;19;20026;-74
2022/05/01 11:47:56;;;;;;;8.10;4.28;;;18.40;57.00;;;;;;9185422;19;20475;-75
2022/05/01 11:51:01;;;;;;;8.55;4.32;;;18.40;56.50;;;;;;9184191;19;20016;-76
2022/05/01 11:54:10;;;;;;;9.15;4.45;;;18.40;56.50;;;;;;9182210;19;20014;-75
2022/05/01 12:03:56;;;;;;;9.13;4.40;;;18.40;56.20;;;;;;9181895;19;20010;-74
2022/05/01 12:07:07;;;;;;;7.15;4.10;;;18.30;56.00;;;;;;9183624;19;20017;-74
2022/05/01 12:10:16;;;;;;;8.13;4.50;;;18.30;55.70;;;;;;9181101;19;20130;-71
2022/05/01 12:13:23;;;;;;;8.57;4.13;;;18.20;56.30;;;;;;9180247;19;20021;-74
2022/05/01 12:16:28;;;;;;;10.02;5.40;;;18.20;55.70;;;;;;9172391;19;20015;-72
2022/05/01 12:19:38;;;;;;;8.57;5.10;;;18.10;55.60;;;;;;9168464;19;20122;-73
2022/05/01 12:22:43;;;;;;;8.48;4.68;;;18.00;55.40;;;;;;9171851;19;20023;-73
2022/05/01 12:25:54;;;;;;;7.55;4.70;;;17.90;55.50;;;;;;9172323;19;20018;-71
2022/05/01 12:28:59;;;;;;;12.57;4.82;;;17.90;55.30;;;;;;9170202;19;20038;-70
2022/05/01 12:32:09;;;;;;;9.98;5.03;;;17.80;55.40;;;;;;9171139;19;20018;-73
2022/05/01 12:35:14;;;;;;;10.05;4.47;;;17.70;55.30;;;;;;9171039;19;20013;-74
2022/05/01 12:38:19;;;;;;;6.85;4.63;;;17.60;55.30;;;;;;9168057;19;20022;-73
2022/05/01 12:45:25;;;;;;;6.80;4.53;;;17.50;55.10;;;;;;9169866;19;20589;-73
2022/05/01 12:48:30;;;;;;;12.63;5.30;;;17.40;54.90;;;;;;9168788;19;20011;-74
2022/05/01 12:51:41;;;;;;;11.20;4.60;;;17.40;55.30;;;;;;9170661;19;20026;-74
2022/05/01 12:55:07;;;;;;;8.90;5.40;;;17.30;55.10;;;;;;9171508;19;20049;-75
2022/05/01 12:58:15;;;;;;;7.55;4.80;;;17.20;54.80;;;;;;9170888;19;20396;-75
2022/05/01 13:01:27;;;;;;;8.88;4.47;;;17.20;55.10;;;;;;9171603;19;20021;-70
2022/05/01 13:04:33;;;;;;;9.88;5.72;;;17.20;55.00;;;;;;9167656;19;20037;-73
2022/05/01 13:07:38;;;;;;;9.38;5.00;;;17.10;55.00;;;;;;9169402;19;20678;-73
2022/05/01 13:10:43;;;;;;;9.00;5.57;;;17.00;54.90;;;;;;9172638;19;20448;-72
2022/05/01 13:13:52;;;;;;;9.93;5.00;;;17.00;54.90;;;;;;9173697;19;20019;-73
2022/05/01 13:17:08;;;;;;;7.40;5.03;;;17.00;54.80;;;;;;9171640;19;20025;-72
2022/05/01 13:20:13;;;;;;;9.20;5.10;;;16.90;55.00;;;;;;9170253;19;20014;-73
2022/05/01 13:23:18;;;;;;;8.93;5.40;;;16.90;54.90;;;;;;9169321;19;20480;-74
2022/05/01 13:26:23;;;;;;;8.02;4.78;;;16.90;54.80;;;;;;9169837;19;20014;-74
2022/05/01 13:29:32;;;;;;;8.88;5.05;;;16.90;54.90;;;;;;9170023;19;20022;-74
2022/05/01 13:32:37;;;;;;;9.02;5.25;;;16.90;54.80;;;;;;9168359;19;20018;-73
2022/05/01 13:35:42;;;;;;;10.20;5.20;;;16.90;55.00;;;;;;9170718;19;20023;-75
2022/05/01 13:38:46;;;;;;;9.45;5.18;;;16.90;54.90;;;;;;9170134;19;20026;-72
2022/05/01 13:45:13;;;;;;;9.80;5.53;;;16.90;54.70;;;;;;9168116;19;20018;-73
2022/05/01 13:48:18;;;;;;;8.52;5.90;;;16.90;54.60;;;;;;9167821;19;20019;-70
2022/05/01 13:51:24;;;;;;;9.75;5.32;;;16.90;54.60;;;;;;9176003;19;20018;-74
2022/05/01 13:54:29;;;;;;;7.90;5.00;;;16.90;54.50;;;;;;9173049;19;20339;-72
2022/05/01 13:57:35;;;;;;;10.95;5.10;;;16.90;54.40;;;;;;9174767;19;20026;-73
2022/05/01 14:00:43;;;;;;;11.88;6.07;;;16.90;55.00;;;;;;9178340;19;20014;-74
2022/05/01 14:03:48;;;;;;;12.55;5.88;;;16.90;54.20;;;;;;9178204;19;20022;-71
2022/05/01 14:06:54;;;;;;;13.35;6.00;;;16.90;54.30;;;;;;9179173;19;20019;-73
2022/05/01 14:09:59;;;;;;;12.27;5.32;;;16.90;54.20;;;;;;9173127;19;20034;-72
2022/05/01 14:13:07;;;;;;;9.52;5.45;;;16.90;54.20;;;;;;9176121;19;20102;-73
2022/05/01 14:16:16;;;;;;;9.63;5.72;;;16.90;54.20;;;;;;9176115;19;20018;-73
2022/05/01 14:19:24;;;;;;;11.80;5.25;;;17.00;54.20;;;;;;9177650;19;20018;-75
2022/05/01 14:22:29;;;;;;;9.88;5.78;;;17.00;54.10;;;;;;9176280;19;20028;-71
2022/05/01 14:25:34;;;;;;;12.05;5.30;;;17.00;54.10;;;;;;9177082;19;20054;-73
2022/05/01 14:28:39;;;;;;;12.13;5.68;;;17.00;54.10;;;;;;9176510;19;20025;-74
2022/05/01 14:31:53;;;;;;;8.77;5.75;;;17.00;54.00;;;;;;9175521;19;20019;-74
2022/05/01 14:35:02;;;;;;;11.30;5.45;;;17.10;54.50;;;;;;9180161;19;20039;-74
2022/05/01 14:38:09;;;;;;;11.75;5.68;;;17.10;54.00;;;;;;9179481;19;20010;-74
2022/05/01 14:41:19;;;;;;;8.93;5.75;;;17.10;53.80;;;;;;9181778;19;20019;-72
2022/05/01 14:44:30;;;;;;;8.95;5.35;;;17.20;53.90;;;;;;9182750;19;20010;-75
2022/05/01 14:47:46;;;;;;;9.35;5.63;;;17.20;53.70;;;;;;9183999;19;20018;-74
2022/05/01 14:50:54;;;;;;;9.95;5.75;;;17.30;53.70;;;;;;9185634;19;20011;-73
2022/05/01 14:54:01;;;;;;;11.73;6.13;;;17.30;53.70;;;;;;9184121;19;20040;-74
2022/05/01 14:57:10;;;;;;;10.35;5.97;;;17.40;53.60;;;;;;9180706;19;20018;-75
2022/05/01 15:07:00;;;;;;;8.02;5.78;;;17.50;53.20;;;;;;9183371;19;20348;-74
2022/05/01 15:10:06;;;;;;;9.75;5.20;;;17.50;53.30;;;;;;9181706;19;20025;-75
2022/05/01 15:13:11;;;;;;;8.98;5.90;;;17.50;53.30;;;;;;9184965;19;20011;-74
2022/05/01 15:16:20;;;;;;;7.90;5.40;;;17.50;53.20;;;;;;9185543;19;20015;-70
2022/05/01 15:19:37;;;;;;;9.45;5.13;;;17.40;53.10;;;;;;9182906;19;20938;-70
2022/05/01 15:22:47;;;;;;;8.60;4.85;;;17.40;53.00;;;;;;9179038;19;20371;-71
2022/05/01 15:25:57;;;;;;;10.43;5.00;;;17.40;53.10;;;;;;9175731;19;20018;-71
2022/05/01 15:29:06;;;;;;;10.43;5.80;;;17.40;53.00;;;;;;9173480;19;20107;-71
2022/05/01 15:32:19;;;;;;;9.40;5.85;;;17.30;53.00;;;;;;9171852;19;20475;-71
2022/05/01 15:35:29;;;;;;;10.10;5.97;;;17.30;53.00;;;;;;9170493;19;20022;-71
2022/05/01 15:38:40;;;;;;;9.65;5.32;;;17.30;53.00;;;;;;9175098;19;20025;-71
2022/05/01 15:41:53;;;;;;;7.45;5.35;;;17.30;53.00;;;;;;9177376;19;20007;-71
2022/05/01 15:44:58;;;;;;;7.60;5.53;;;17.30;53.00;;;;;;9175367;19;20593;-72
2022/05/01 15:48:04;;;;;;;7.90;5.03;;;17.30;53.00;;;;;;9175993;19;20026;-72
2022/05/01 15:54:31;;;;;;;12.98;6.18;;;17.20;52.90;;;;;;9170491;19;20015;-71
2022/05/01 15:57:37;;;;;;;8.15;5.63;;;17.20;52.90;;;;;;9170120;19;20018;-72
2022/05/01 16:00:43;;;;;;;9.68;5.25;;;17.10;52.80;;;;;;9173632;19;20021;-71
2022/05/01 16:03:48;;;;;;;17.75;5.68;;;17.10;52.90;;;;;;9170526;19;20038;-72
2022/05/01 16:07:00;;;;;;;10.75;5.72;;;17.00;52.80;;;;;;9170941;19;20030;-72
2022/05/01 16:10:13;;;;;;;9.18;5.40;;;17.00;52.70;;;;;;9174580;19;20014;-72
2022/05/01 16:13:24;;;;;;;10.30;5.90;;;17.00;52.70;;;;;;9176079;19;20011;-72
2022/05/01 16:16:36;;;;;;;9.55;5.40;;;16.90;52.80;;;;;;9176841;19;20015;-72
2022/05/01 16:19:52;;;;;;;9.07;5.00;;;16.90;52.70;;;;;;9171172;19;20020;-72
2022/05/01 16:23:06;;;;;;;16.17;5.82;;;16.90;52.80;;;;;;9169587;19;20022;-71
2022/05/01 16:26:15;;;;;;;8.35;5.55;;;16.80;52.70;;;;;;9177487;19;20502;-72
2022/05/01 16:29:26;;;;;;;10.35;4.70;;;16.80;52.70;;;;;;9176612;19;20353;-72
2022/05/01 16:32:39;;;;;;;8.80;5.00;;;16.80;52.70;;;;;;9177035;19;20439;-71
2022/05/01 16:35:49;;;;;;;8.55;4.85;;;16.80;52.60;;;;;;9175178;19;20015;-72
2022/05/01 16:38:58;;;;;;;9.82;4.70;;;16.70;52.70;;;;;;9176698;19;20010;-72
2022/05/01 16:42:04;;;;;;;7.40;4.72;;;16.70;52.60;;;;;;9172403;19;20121;-72
2022/05/01 16:45:12;;;;;;;9.65;5.15;;;16.70;52.70;;;;;;9174958;19;20022;-72
2022/05/01 16:48:19;;;;;;;10.68;5.15;;;16.60;52.60;;;;;;9175483;19;20010;-71
2022/05/01 16:51:25;;;;;;;7.18;4.57;;;16.60;52.60;;;;;;9174873;19;20487;-72
2022/05/01 16:54:37;;;;;;;9.20;4.32;;;16.60;52.60;;;;;;9176666;19;20021;-71
2022/05/01 16:57:45;;;;;;;6.38;4.22;;;16.60;52.50;;;;;;9170708;19;20495;-71
2022/05/01 17:00:53;;;;;;;8.48;4.60;;;16.50;52.50;;;;;;9174456;19;20018;-72